KNSE/NSE METAR and TAF weather

Enter ICAO airport designator
Station Type Date Time Source
KNSE METAR 2021/05/15 01:56 UTC NOAA

KNSE 150156Z 02003KT 10SM FEW080 16/10 A3018 RMK AO2 SLP207 T01610100 $


Station Type Date Time Source
KNSE Decoded METAR 2021/05/15 01:56 UTC NOAA

MILTON WHITING FIELD (NORTH), FL, United States (KNSE) 30-44N 87-01W 60M
May 14, 2021 - 09:56 PM EDT / 2021.05.15 0156 UTC
Wind: from the NNE (020 degrees) at 3 MPH (3 KT):0
Visibility: 10 mile(s):0
Sky conditions: mostly clear
Temperature: 61.0 F (16.1 C)
Dew Point: 50.0 F (10.0 C)
Relative Humidity: 67%
Pressure (altimeter): 30.18 in. Hg (1022 hPa)
ob: KNSE 150156Z 02003KT 10SM FEW080 16/10 A3018 RMK AO2 SLP207 T01610100
cycle: 2

Station Type Date Time Source
KNSE TAF 2021/05/14 23:36 UTC NOAA

TAF TAF KNSE 1423/1523 VRB06KT 9999 FEW070 QNH3014INS
FM150200 04004KT 9999 SKC QNH3016INS
FM151300 08005KT 9999 SKC QNH3021INS
FM151800 14008KT 9999 FEW045 SCT055 QNH3014INS
FM152300 VRB06KT 9999 SCT070 SCT250 QNH3013INS AUTOMATED SENSOR METWATCH 1504 TIL 1711 T12/1511Z T26/1519Z FN20031

Example: see airport list